Latest Weather Observations for St Kilda Harbour RMYS

IDV60901

Issued at 2:51 am EST Thursday 23 May 2019 (issued every 10 minutes, with the page automatically refreshed every 10 minutes)

About weather observations | Map of Melbourne area stations | Latest observations for Melbourne area | Other Formats
Station Details ID: 086220 Name: ST KILDA HARBOUR - RMYS Lat: -37.86 Lon: 144.96 Height: 6.4 m
Data from the previous 72 hours. | See also: Recent months at St Kilda Harbour RMYS
Date/Time
EST
Temp
°C
App
Temp
°C
Dew
Point
°C
Rel
Hum
%
Delta-T
°C
Wind Press
QNH
hPa
Press
MSL
hPa
Rain since
9am
mm
Dir  Spd
km/h
Gust
km/h
Spd
kts
Gust
kts
23/02:30am - - - - - NNE 15 20 8 11 - - -
23/02:00am - - - - - NNE 15 19 8 10 - - -
23/01:30am - - - - - NNE 15 20 8 11 - - -
23/01:00am - - - - - NNE 15 20 8 11 - - -
23/12:30am - - - - - NNE 13 17 7 9 - - -
23/12:00am - - - - - NNE 9 13 5 7 - - -
 
Date/Time
EST
Temp
°C
App
Temp
°C
Dew
Point
°C
Rel
Hum
%
Delta-T
°C
Wind Press
QNH
hPa
Press
MSL
hPa
Rain since
9am
mm
Dir  Spd
km/h
Gust
km/h
Spd
kts
Gust
kts
22/11:30pm - - - - - NNE 7 9 4 5 - - -
22/11:00pm - - - - - N 6 7 3 4 - - -
22/10:30pm - - - - - N 4 6 2 3 - - -
22/10:00pm - - - - - N 6 7 3 4 - - -
22/09:30pm - - - - - NNW 15 20 8 11 - - -
22/09:00pm - - - - - NNW 13 17 7 9 - - -
22/08:30pm - - - - - NNW 13 17 7 9 - - -
22/08:00pm - - - - - WNW 7 11 4 6 - - -
22/07:30pm - - - - - SE 4 7 2 4 - - -
22/07:00pm - - - - - SE 4 6 2 3 - - -
22/06:30pm - - - - - ESE 6 9 3 5 - - -
22/06:00pm - - - - - ESE 6 7 3 4 - - -
22/05:30pm - - - - - S 15 17 8 9 - - -
22/05:00pm - - - - - S 17 17 9 9 - - -
22/04:30pm - - - - - S 15 17 8 9 - - -
22/04:00pm - - - - - SSE 17 19 9 10 - - -
22/03:30pm - - - - - S 19 20 10 11 - - -
22/03:00pm - - - - - S 19 22 10 12 - - -
22/02:30pm - - - - - S 11 13 6 7 - - -
22/02:00pm - - - - - SSE 9 13 5 7 - - -
22/01:30pm - - - - - SSE 7 9 4 5 - - -
22/01:00pm - - - - - S 6 7 3 4 - - -
22/12:30pm - - - - - WSW 2 6 1 3 - - -
22/12:00pm - - - - - W 6 7 3 4 - - -
22/11:30am - - - - - WNW 6 7 3 4 - - -
22/11:00am - - - - - NW 9 13 5 7 - - -
22/10:30am - - - - - NNW 9 17 5 9 - - -
22/10:00am - - - - - NNW 9 13 5 7 - - -
22/09:30am - - - - - NNW 11 15 6 8 - - -
22/09:00am - - - - - NNE 4 6 2 3 - - -
22/08:30am - - - - - NNE 7 11 4 6 - - -
22/08:00am - - - - - N 6 6 3 3 - - -
22/07:30am - - - - - NNE 4 7 2 4 - - -
22/07:00am - - - - - NNE 6 9 3 5 - - -
22/06:30am - - - - - NNE 11 17 6 9 - - -
22/06:00am - - - - - NNE 15 19 8 10 - - -
22/05:30am - - - - - NNE 11 17 6 9 - - -
22/05:00am - - - - - NNE 11 17 6 9 - - -
22/04:30am - - - - - NNE 11 15 6 8 - - -
22/04:00am - - - - - NNE 11 17 6 9 - - -
22/03:30am - - - - - NNE 11 15 6 8 - - -
22/03:00am - - - - - NNE 9 13 5 7 - - -
22/02:30am - - - - - NNE 9 13 5 7 - - -
22/02:00am - - - - - NNE 9 11 5 6 - - -
22/01:30am - - - - - NNE 9 13 5 7 - - -
22/01:00am - - - - - N 9 13 5 7 - - -
22/12:30am - - - - - N 11 15 6 8 - - -
22/12:00am - - - - - NNE 11 15 6 8 - - -
 
Date/Time
EST
Temp
°C
App
Temp
°C
Dew
Point
°C
Rel
Hum
%
Delta-T
°C
Wind Press
QNH
hPa
Press
MSL
hPa
Rain since
9am
mm
Dir  Spd
km/h
Gust
km/h
Spd
kts
Gust
kts
21/11:30pm - - - - - NNE 11 15 6 8 - - -
21/11:00pm - - - - - NNE 9 13 5 7 - - -
21/10:30pm - - - - - N 9 15 5 8 - - -
21/10:00pm - - - - - N 11 13 6 7 - - -
21/09:30pm - - - - - N 9 13 5 7 - - -
21/09:00pm - - - - - N 9 13 5 7 - - -
21/08:30pm - - - - - N 11 15 6 8 - - -
21/08:00pm - - - - - N 15 20 8 11 - - -
21/07:30pm - - - - - NNW 19 26 10 14 - - -
21/07:00pm - - - - - N 17 26 9 14 - - -
21/06:30pm - - - - - N 20 28 11 15 - - -
21/06:00pm - - - - - N 19 24 10 13 - - -
21/05:30pm - - - - - NNE 15 20 8 11 - - -
21/05:00pm - - - - - N 17 24 9 13 - - -
21/04:30pm - - - - - NNW 22 28 12 15 - - -
21/04:00pm - - - - - NNW 22 32 12 17 - - -
21/03:30pm - - - - - N 17 26 9 14 - - -
21/03:00pm - - - - - N 19 24 10 13 - - -
21/02:30pm - - - - - NNW 19 26 10 14 - - -
21/02:00pm - - - - - NW 20 28 11 15 - - -
21/01:30pm - - - - - NW 19 24 10 13 - - -
21/01:00pm - - - - - NNW 13 19 7 10 - - -
21/12:30pm - - - - - N 17 24 9 13 - - -
21/12:00pm - - - - - N 17 26 9 14 - - -
21/11:30am - - - - - N 15 24 8 13 - - -
21/11:00am - - - - - N 19 28 10 15 - - -
21/10:30am - - - - - NNW 22 32 12 17 - - -
21/10:00am - - - - - N 22 33 12 18 - - -
21/09:30am - - - - - N 24 30 13 16 - - -
21/09:00am - - - - - N 19 24 10 13 - - -
21/08:30am - - - - - N 22 30 12 16 - - -
21/08:00am - - - - - NNW 22 28 12 15 - - -
21/07:30am - - - - - NNW 19 24 10 13 - - -
21/07:00am - - - - - NNW 19 24 10 13 - - -
21/06:30am - - - - - N 6 9 3 5 - - -
21/06:00am - - - - - NNE 7 9 4 5 - - -
21/05:30am - - - - - NNE 7 9 4 5 - - -
21/05:00am - - - - - NNE 6 9 3 5 - - -
21/04:30am - - - - - N 7 9 4 5 - - -
21/04:00am - - - - - NNW 13 17 7 9 - - -
21/03:30am - - - - - N 15 19 8 10 - - -
21/03:00am - - - - - NNW 13 19 7 10 - - -
21/02:30am - - - - - N 6 9 3 5 - - -
21/02:00am - - - - - NNE 7 9 4 5 - - -
21/01:30am - - - - - N 15 17 8 9 - - -
21/01:00am - - - - - NNW 17 20 9 11 - - -
21/12:30am - - - - - NNW 15 20 8 11 - - -
21/12:00am - - - - - NNW 17 20 9 11 - - -
 
Date/Time
EST
Temp
°C
App
Temp
°C
Dew
Point
°C
Rel
Hum
%
Delta-T
°C
Wind Press
QNH
hPa
Press
MSL
hPa
Rain since
9am
mm
Dir  Spd
km/h
Gust
km/h
Spd
kts
Gust
kts
20/11:30pm - - - - - NNW 17 20 9 11 - - -
20/11:00pm - - - - - NNW 19 26 10 14 - - -
20/10:30pm - - - - - NNW 19 24 10 13 - - -
20/10:00pm - - - - - N 17 20 9 11 - - -
20/09:30pm - - - - - NNW 22 32 12 17 - - -
20/09:00pm - - - - - NNW 20 28 11 15 - - -
20/08:30pm - - - - - N 20 28 11 15 - - -
20/08:00pm - - - - - N 19 26 10 14 - - -
20/07:30pm - - - - - N 24 32 13 17 - - -
20/07:00pm - - - - - N 22 33 12 18 - - -
20/06:30pm - - - - - N 22 33 12 18 - - -
20/06:00pm - - - - - N 28 39 15 21 - - -
20/05:30pm - - - - - N 24 33 13 18 - - -
20/05:00pm - - - - - N 22 35 12 19 - - -
20/04:30pm - - - - - N 30 46 16 25 - - -
20/04:05pm - - - - - N 30 50 16 27 - - -
20/04:00pm - - - - - N 28 41 15 22 - - -
20/03:30pm - - - - - N 30 41 16 22 - - -
20/03:13pm - - - - - N 35 56 19 30 - - -
20/03:00pm - - - - - N 35 48 19 26 - - -
20/02:40pm - - - - - NNW 32 52 17 28 - - -
20/02:30pm - - - - - N 32 50 17 27 - - -
20/02:18pm - - - - - N 32 50 17 27 - - -
20/02:00pm - - - - - N 32 48 17 26 - - -
20/01:36pm - - - - - N 28 48 15 26 - - -
20/01:30pm - - - - - N 26 37 14 20 - - -
20/01:00pm - - - - - N 32 52 17 28 - - -
20/12:56pm - - - - - N 28 52 15 28 - - -
20/12:30pm - - - - - N 30 43 16 23 - - -
20/12:00pm - - - - - N 24 33 13 18 - - -
20/11:30am - - - - - N 30 46 16 25 - - -
20/11:05am - - - - - N 37 56 20 30 - - -
20/11:00am - - - - - N 39 56 21 30 - - -
20/10:30am - - - - - NNE 35 56 19 30 - - -
20/10:07am - - - - - N 30 48 16 26 - - -
20/10:00am - - - - - N 32 44 17 24 - - -
20/09:30am - - - - - NNE 26 39 14 21 - - -
20/09:00am - - - - - N 30 46 16 25 - - -
20/08:30am - - - - - N 30 44 16 24 - - -
20/08:07am - - - - - N 28 46 15 25 - - -
20/08:00am - - - - - N 30 46 16 25 - - -
20/07:30am - - - - - N 19 32 10 17 - - -
20/07:00am - - - - - N 9 15 5 8 - - -
20/06:30am - - - - - NNE 15 24 8 13 - - -
20/06:00am - - - - - NNE 15 22 8 12 - - -
20/05:30am - - - - - N 6 9 3 5 - - -
20/05:00am - - - - - N 9 13 5 7 - - -
20/04:30am - - - - - NNE 11 20 6 11 - - -
20/04:00am - - - - - NNE 15 22 8 12 - - -
20/03:30am - - - - - NNE 13 17 7 9 - - -
20/03:00am - - - - - NNE 13 20 7 11 - - -

Latest Capital City Observations: Canberra | Sydney | Melbourne | Brisbane | Adelaide | Perth | Hobart | Darwin

Other formats

Comma delimited format used in spreadsheet applications
http://www.bom.gov.au/fwo/IDV60901/IDV60901.95864.axf

JavaScript Object Notation format (JSON) in row-major order
http://www.bom.gov.au/fwo/IDV60901/IDV60901.95864.json

Data quality

Most of these data are generated automatically and are frequently updated. Quality checks on data are not normally performed. It is possible for incorrect values to appear. Refer to information at About Latest Weather Observations and please check the disclaimer before using these data.